createdAt,value
2022-12-18T00:01:07.360Z,1.26
2022-12-18T00:03:34.980Z,1.35
2022-12-18T00:06:02.299Z,1.42
2022-12-18T00:08:29.424Z,1.42
2022-12-18T00:10:59.723Z,1.40
2022-12-18T00:13:28.465Z,1.41
2022-12-18T00:15:56.619Z,1.41
2022-12-18T00:18:23.507Z,1.44
2022-12-18T00:20:50.262Z,1.53
2022-12-18T00:23:17.006Z,1.63
2022-12-18T00:25:43.740Z,1.74
2022-12-18T00:28:10.505Z,1.82
2022-12-18T00:30:37.220Z,1.92
2022-12-18T00:33:03.957Z,2.00
2022-12-18T00:35:30.839Z,2.07
2022-12-18T00:37:57.612Z,2.14
2022-12-18T00:40:24.243Z,2.20
2022-12-18T00:42:57.004Z,2.30
2022-12-18T00:45:31.820Z,2.38
2022-12-18T00:47:58.921Z,2.45
2022-12-18T00:50:26.117Z,2.51
2022-12-18T00:52:53.216Z,2.57
2022-12-18T00:55:20.241Z,2.61
2022-12-18T00:57:46.845Z,2.67
2022-12-18T01:00:16.223Z,2.72
2022-12-18T01:02:43.442Z,2.78
2022-12-18T01:05:12.360Z,2.79
2022-12-18T01:07:39.564Z,2.77
2022-12-18T01:10:07.936Z,2.73
2022-12-18T01:12:34.545Z,2.72
2022-12-18T01:15:02.702Z,2.73
2022-12-18T01:17:29.549Z,2.78
2022-12-18T01:19:56.270Z,2.83
2022-12-18T01:22:23.098Z,2.90
2022-12-18T01:24:49.991Z,2.96
2022-12-18T01:27:16.730Z,2.98
2022-12-18T01:29:43.727Z,3.01
2022-12-18T01:32:10.549Z,3.03
2022-12-18T01:34:38.224Z,3.07
2022-12-18T01:37:06.154Z,3.12
2022-12-18T01:39:33.620Z,3.14
2022-12-18T01:42:03.936Z,3.17
2022-12-18T01:45:03.398Z,3.15
2022-12-18T01:47:39.137Z,3.08
2022-12-18T01:50:14.236Z,3.03
2022-12-18T01:52:47.857Z,2.96
2022-12-18T01:55:17.611Z,2.89
2022-12-18T01:57:44.722Z,2.87
2022-12-18T02:00:18.320Z,2.88
2022-12-18T02:02:46.664Z,2.90
2022-12-18T02:05:20.577Z,2.91
2022-12-18T02:07:55.461Z,2.95
2022-12-18T02:11:18.515Z,2.95
2022-12-18T02:13:51.784Z,3.00
2022-12-18T02:16:35.953Z,3.02
2022-12-18T02:19:21.964Z,3.05
2022-12-18T02:21:58.766Z,3.06
2022-12-18T02:24:43.129Z,3.12
2022-12-18T02:27:11.838Z,3.17
2022-12-18T02:29:45.119Z,3.20
2022-12-18T02:32:17.191Z,3.26
2022-12-18T02:34:45.523Z,3.34
2022-12-18T02:38:12.185Z,3.38
2022-12-18T02:45:22.663Z,3.53
2022-12-18T02:48:49.073Z,3.64
2022-12-18T02:55:32.731Z,3.83
2022-12-18T02:58:25.435Z,3.86
2022-12-18T03:01:54.871Z,3.99
2022-12-18T03:08:58.652Z,4.18
2022-12-18T03:11:47.469Z,4.27
2022-12-18T03:14:17.938Z,4.31
2022-12-18T03:16:46.606Z,4.31
2022-12-18T03:19:18.193Z,4.34
2022-12-18T03:21:48.440Z,4.34
2022-12-18T03:24:18.124Z,4.34
2022-12-18T03:26:47.601Z,4.35
2022-12-18T03:29:19.681Z,4.34
2022-12-18T03:31:53.069Z,4.35
2022-12-18T03:34:26.062Z,4.40
2022-12-18T03:36:52.589Z,4.43
2022-12-18T03:39:20.987Z,4.43
2022-12-18T03:42:06.636Z,4.46
2022-12-18T03:44:41.681Z,4.48
2022-12-18T03:47:22.063Z,4.45
2022-12-18T03:49:54.376Z,4.44
2022-12-18T03:52:46.639Z,4.44
2022-12-18T03:55:13.901Z,4.44
2022-12-18T03:57:42.764Z,4.47
2022-12-18T04:00:13.899Z,4.50
2022-12-18T04:02:45.863Z,4.55
2022-12-18T04:05:14.752Z,4.59
2022-12-18T04:07:42.267Z,4.61
2022-12-18T04:10:10.839Z,4.62
2022-12-18T04:12:38.719Z,4.63
2022-12-18T04:15:06.906Z,4.65
2022-12-18T04:17:33.621Z,4.66
2022-12-18T04:20:00.349Z,4.71
2022-12-18T04:22:28.191Z,4.72
2022-12-18T04:24:54.939Z,4.72
2022-12-18T04:27:22.190Z,4.74
2022-12-18T04:29:48.922Z,4.74
2022-12-18T04:32:15.758Z,4.77
2022-12-18T04:34:42.397Z,4.78
2022-12-18T04:37:09.341Z,4.77
2022-12-18T04:39:36.841Z,4.79
2022-12-18T04:42:03.843Z,4.79
2022-12-18T04:44:30.496Z,4.78
2022-12-18T04:46:57.148Z,4.81
2022-12-18T04:49:24.147Z,4.82
2022-12-18T04:51:50.833Z,4.84
2022-12-18T04:54:17.579Z,4.85
2022-12-18T04:56:44.492Z,4.90
2022-12-18T04:59:11.227Z,4.92
2022-12-18T05:01:38.000Z,4.94
2022-12-18T05:04:05.133Z,4.98
2022-12-18T05:06:31.905Z,5.01
2022-12-18T05:08:59.211Z,5.03
2022-12-18T05:11:25.981Z,5.03
2022-12-18T05:13:52.731Z,5.04
2022-12-18T05:16:19.463Z,5.05
2022-12-18T05:18:46.282Z,5.05
2022-12-18T05:21:12.992Z,5.06
2022-12-18T05:23:40.031Z,5.05
2022-12-18T05:26:08.913Z,5.06
2022-12-18T05:28:37.092Z,5.09
2022-12-18T05:31:05.882Z,5.09
2022-12-18T05:33:34.871Z,5.09
2022-12-18T05:36:03.151Z,5.08
2022-12-18T05:38:31.153Z,5.06
2022-12-18T05:40:58.299Z,5.03
2022-12-18T05:43:26.601Z,5.03
2022-12-18T05:45:54.436Z,5.04
2022-12-18T05:48:22.529Z,5.04
2022-12-18T05:50:50.442Z,5.05
2022-12-18T05:53:20.472Z,5.04
2022-12-18T05:55:47.917Z,5.04
2022-12-18T05:58:15.480Z,5.03
2022-12-18T06:00:46.854Z,5.07
2022-12-18T06:03:14.736Z,5.09
2022-12-18T06:05:45.031Z,5.10
2022-12-18T06:08:12.724Z,5.09
2022-12-18T06:10:39.776Z,5.09
2022-12-18T06:13:07.255Z,5.10
2022-12-18T06:15:34.254Z,5.11
2022-12-18T06:18:03.148Z,5.11
2022-12-18T06:20:33.598Z,5.13
2022-12-18T06:23:00.988Z,5.13
2022-12-18T06:25:27.787Z,5.14
2022-12-18T06:27:54.509Z,5.14
2022-12-18T06:30:21.677Z,5.15
2022-12-18T06:32:53.130Z,5.13
2022-12-18T06:35:21.570Z,5.12
2022-12-18T06:37:49.028Z,5.10
2022-12-18T06:40:15.753Z,5.08
2022-12-18T06:42:42.397Z,5.06
2022-12-18T06:45:09.640Z,5.03
2022-12-18T06:47:36.255Z,5.00
2022-12-18T06:50:03.250Z,4.98
2022-12-18T06:52:29.980Z,4.95
2022-12-18T06:54:56.888Z,4.94
2022-12-18T06:57:23.550Z,4.91
2022-12-18T06:59:50.496Z,4.87
2022-12-18T07:02:17.745Z,4.84
2022-12-18T07:04:44.458Z,4.77
2022-12-18T07:07:11.091Z,4.78
2022-12-18T07:09:38.057Z,4.73
2022-12-18T07:12:05.986Z,4.73
2022-12-18T07:14:35.045Z,4.71
2022-12-18T07:17:02.683Z,4.70
2022-12-18T07:19:30.742Z,4.70
2022-12-18T07:21:57.935Z,4.69
2022-12-18T07:24:24.706Z,4.71
2022-12-18T07:26:51.392Z,4.73
2022-12-18T07:29:18.138Z,4.72
2022-12-18T07:31:45.460Z,4.73
2022-12-18T07:34:13.948Z,4.73
2022-12-18T07:36:40.689Z,4.75
2022-12-18T07:39:07.403Z,4.79
2022-12-18T07:41:34.201Z,4.86
2022-12-18T07:44:00.874Z,4.88
2022-12-18T07:46:27.628Z,4.88
2022-12-18T07:48:56.711Z,4.92
2022-12-18T07:51:23.424Z,4.93
2022-12-18T07:53:52.528Z,4.96
2022-12-18T07:56:29.136Z,4.98
2022-12-18T07:58:57.958Z,5.00
2022-12-18T08:01:24.848Z,5.01
2022-12-18T08:03:52.290Z,5.00
2022-12-18T08:06:19.552Z,5.01
2022-12-18T08:08:49.519Z,5.03
2022-12-18T08:11:16.855Z,5.03
2022-12-18T08:13:43.812Z,5.01
2022-12-18T08:16:10.824Z,5.01
2022-12-18T08:18:38.771Z,5.01
2022-12-18T08:21:16.816Z,5.02
2022-12-18T08:23:44.108Z,5.02
2022-12-18T08:26:12.214Z,5.02
2022-12-18T08:28:39.608Z,4.99
2022-12-18T08:31:06.377Z,4.97
2022-12-18T08:33:33.805Z,4.96
2022-12-18T08:36:03.102Z,4.95
2022-12-18T08:38:29.842Z,4.95
2022-12-18T08:41:04.786Z,4.94
2022-12-18T08:43:50.204Z,4.94
2022-12-18T08:46:17.973Z,4.96
2022-12-18T08:48:44.832Z,4.96
2022-12-18T08:51:11.898Z,4.96
2022-12-18T08:53:39.420Z,4.95
2022-12-18T08:56:06.832Z,4.97
2022-12-18T08:58:33.477Z,4.99
2022-12-18T09:01:05.129Z,4.99
2022-12-18T09:03:32.118Z,5.01
2022-12-18T09:05:58.794Z,5.03
2022-12-18T09:08:25.802Z,5.03
2022-12-18T09:10:52.784Z,5.05
2022-12-18T09:13:20.236Z,5.06
2022-12-18T09:15:54.539Z,5.06
2022-12-18T09:18:23.363Z,5.07
2022-12-18T09:20:52.841Z,5.07
2022-12-18T09:23:19.723Z,5.07
2022-12-18T09:25:46.326Z,5.09
2022-12-18T09:28:15.722Z,5.10
2022-12-18T09:30:44.912Z,5.09
2022-12-18T09:33:12.046Z,5.09
2022-12-18T09:35:40.050Z,5.09
2022-12-18T09:38:07.678Z,5.10
2022-12-18T09:40:41.017Z,5.09
2022-12-18T09:43:13.568Z,5.12
2022-12-18T09:45:45.713Z,5.16
2022-12-18T09:48:21.977Z,5.18
2022-12-18T09:50:51.247Z,5.21
2022-12-18T09:53:22.672Z,5.23
2022-12-18T09:55:49.940Z,5.25
2022-12-18T09:58:43.478Z,5.26
2022-12-18T10:01:23.803Z,5.28
2022-12-18T10:03:51.720Z,5.28
2022-12-18T10:06:46.953Z,5.30
2022-12-18T10:09:38.437Z,5.29
2022-12-18T10:12:22.349Z,5.31
2022-12-18T10:14:57.125Z,5.30
2022-12-18T10:18:17.413Z,5.32
2022-12-18T10:20:51.395Z,5.32
2022-12-18T10:23:29.879Z,5.34
2022-12-18T10:26:08.105Z,5.36
2022-12-18T10:28:38.934Z,5.38
2022-12-18T10:31:21.098Z,5.41
2022-12-18T10:33:51.393Z,5.43
2022-12-18T10:36:18.008Z,5.46
2022-12-18T10:38:44.936Z,5.49
2022-12-18T10:41:23.109Z,5.53
2022-12-18T10:44:11.321Z,5.55
2022-12-18T10:46:38.363Z,5.57
2022-12-18T10:49:05.909Z,5.60
2022-12-18T10:51:38.688Z,5.61
2022-12-18T10:54:17.817Z,5.64
2022-12-18T10:56:45.416Z,5.66
2022-12-18T11:00:12.775Z,5.67
2022-12-18T11:07:34.558Z,5.69
2022-12-18T11:10:02.688Z,5.70
2022-12-18T11:12:30.175Z,5.71
2022-12-18T11:14:57.683Z,5.73
2022-12-18T11:17:33.306Z,5.75
2022-12-18T11:20:10.390Z,5.76
2022-12-18T11:22:39.266Z,5.78
2022-12-18T11:25:35.897Z,5.82
2022-12-18T11:28:26.972Z,5.84
2022-12-18T11:31:29.381Z,5.89
2022-12-18T11:34:28.718Z,5.94
2022-12-18T11:36:58.853Z,5.97
2022-12-18T11:39:43.744Z,6.00
2022-12-18T11:42:42.573Z,6.00
2022-12-18T11:45:12.131Z,6.03
2022-12-18T11:47:45.589Z,6.05
2022-12-18T11:50:26.550Z,6.08
2022-12-18T11:52:58.198Z,6.10
2022-12-18T11:55:42.983Z,6.14
2022-12-18T11:58:31.141Z,6.17
2022-12-18T12:01:19.414Z,6.22
2022-12-18T12:04:13.542Z,6.26
2022-12-18T12:06:49.949Z,6.32
2022-12-18T12:09:35.793Z,6.37
2022-12-18T12:12:48.680Z,6.42
2022-12-18T12:15:28.211Z,6.46
2022-12-18T12:18:26.242Z,6.48
2022-12-18T12:21:34.138Z,6.54
2022-12-18T12:24:12.626Z,6.57
2022-12-18T12:27:13.698Z,6.61
2022-12-18T12:29:48.697Z,6.65
2022-12-18T12:32:33.555Z,6.68
2022-12-18T12:35:34.125Z,6.70
2022-12-18T12:38:34.861Z,6.75
2022-12-18T12:41:34.006Z,6.80
2022-12-18T12:44:06.455Z,6.88
2022-12-18T12:46:35.134Z,6.91
2022-12-18T12:49:11.033Z,6.99
2022-12-18T12:51:41.981Z,7.04
2022-12-18T12:54:25.914Z,7.12
2022-12-18T12:57:01.724Z,7.15
2022-12-18T12:59:36.564Z,7.22
2022-12-18T13:02:34.281Z,7.30
2022-12-18T13:05:16.059Z,7.31
2022-12-18T13:07:52.813Z,7.37
2022-12-18T13:10:25.625Z,7.40
2022-12-18T13:12:59.498Z,7.45
2022-12-18T13:15:35.872Z,7.47
2022-12-18T13:18:11.226Z,7.49
2022-12-18T13:20:52.420Z,7.50
2022-12-18T13:23:25.029Z,7.55
2022-12-18T13:25:52.311Z,7.56
2022-12-18T13:28:34.878Z,7.55
2022-12-18T13:31:02.963Z,7.56
2022-12-18T13:33:29.793Z,7.59
2022-12-18T13:36:10.420Z,7.60
2022-12-18T13:38:38.933Z,7.64
2022-12-18T13:41:23.957Z,7.65
2022-12-18T13:43:52.530Z,7.69
2022-12-18T13:46:38.341Z,7.72
2022-12-18T13:49:14.285Z,7.72
2022-12-18T13:51:45.241Z,7.72
2022-12-18T13:54:25.278Z,7.72
2022-12-18T13:56:52.303Z,7.72
2022-12-18T13:59:27.368Z,7.73
2022-12-18T14:02:02.782Z,7.73
2022-12-18T14:04:36.617Z,7.74
2022-12-18T14:07:07.332Z,7.75
2022-12-18T14:09:47.293Z,7.74
2022-12-18T14:12:43.566Z,7.76
2022-12-18T14:15:26.894Z,7.76
2022-12-18T14:17:58.283Z,7.76
2022-12-18T14:20:33.772Z,7.78
2022-12-18T14:23:04.243Z,7.79
2022-12-18T14:25:32.085Z,7.82
2022-12-18T14:28:11.192Z,7.84
2022-12-18T14:30:46.951Z,7.86
2022-12-18T14:33:25.871Z,7.86
2022-12-18T14:36:01.712Z,7.91
2022-12-18T14:38:35.797Z,7.93
2022-12-18T14:41:05.434Z,7.95
2022-12-18T14:43:37.660Z,7.96
2022-12-18T14:46:07.234Z,7.97
2022-12-18T14:48:42.704Z,7.99
2022-12-18T14:51:19.615Z,8.00
2022-12-18T14:53:55.828Z,8.00
2022-12-18T14:56:31.489Z,8.04
2022-12-18T14:59:01.256Z,8.05
2022-12-18T15:01:54.177Z,8.06
2022-12-18T15:04:33.262Z,8.07
2022-12-18T15:07:12.332Z,8.11
2022-12-18T15:09:41.810Z,8.15
2022-12-18T15:12:34.072Z,8.16
2022-12-18T15:15:01.156Z,8.17
2022-12-18T15:17:28.190Z,8.15
2022-12-18T15:20:03.005Z,8.16
2022-12-18T15:22:38.938Z,8.16
2022-12-18T15:25:33.214Z,8.15
2022-12-18T15:27:59.882Z,8.14
2022-12-18T15:30:27.134Z,8.13
2022-12-18T15:33:14.167Z,8.12
2022-12-18T15:35:46.633Z,8.11
2022-12-18T15:38:13.950Z,8.07
2022-12-18T15:40:40.792Z,8.09
2022-12-18T15:43:36.510Z,8.09
2022-12-18T15:46:17.808Z,8.08
2022-12-18T15:48:49.284Z,8.03
2022-12-18T15:51:25.583Z,7.96
2022-12-18T15:53:55.571Z,7.91
2022-12-18T15:56:41.342Z,7.85
2022-12-18T15:59:13.305Z,7.88
2022-12-18T16:01:42.803Z,7.85
2022-12-18T16:04:13.074Z,7.81
2022-12-18T16:07:12.561Z,7.79
2022-12-18T16:09:27.139Z,7.78
2022-12-18T16:11:54.218Z,7.79
2022-12-18T16:14:29.272Z,7.82
2022-12-18T16:17:02.647Z,7.89
2022-12-18T16:19:30.264Z,7.96
2022-12-18T16:21:58.795Z,8.04
2022-12-18T16:24:27.964Z,8.04
2022-12-18T16:26:55.675Z,8.03
2022-12-18T16:29:25.805Z,8.02
2022-12-18T16:31:53.155Z,8.02
2022-12-18T16:34:26.050Z,8.01
2022-12-18T16:37:05.179Z,7.94
2022-12-18T16:39:36.422Z,7.95
2022-12-18T16:42:17.425Z,7.89
2022-12-18T16:44:44.947Z,7.84
2022-12-18T16:47:14.367Z,7.77
2022-12-18T16:49:42.298Z,7.75
2022-12-18T16:52:09.246Z,7.71
2022-12-18T16:54:36.798Z,7.68
2022-12-18T16:57:05.456Z,7.66
2022-12-18T16:59:32.731Z,7.74
2022-12-18T17:01:59.573Z,7.78
2022-12-18T17:04:26.774Z,7.84
2022-12-18T17:06:54.029Z,7.84
2022-12-18T17:09:30.903Z,7.81
2022-12-18T17:11:57.641Z,7.78
2022-12-18T17:14:25.298Z,7.78
2022-12-18T17:17:19.619Z,7.76
2022-12-18T17:19:42.311Z,7.74
2022-12-18T17:22:09.704Z,7.70
2022-12-18T17:24:36.431Z,7.69
2022-12-18T17:27:04.468Z,7.66
2022-12-18T17:29:31.272Z,7.64
2022-12-18T17:31:58.727Z,7.64
2022-12-18T17:34:27.517Z,7.64
2022-12-18T17:36:54.256Z,7.67
2022-12-18T17:40:20.768Z,7.72
2022-12-18T17:47:39.466Z,7.73
2022-12-18T17:51:05.981Z,7.73
2022-12-18T17:58:24.906Z,7.77
2022-12-18T18:01:54.393Z,7.82
2022-12-18T18:05:20.982Z,7.83
2022-12-18T18:08:48.052Z,7.83
2022-12-18T18:12:15.230Z,7.83
2022-12-18T18:14:46.136Z,7.80
2022-12-18T18:17:16.773Z,7.79
2022-12-18T18:19:49.503Z,7.78
2022-12-18T18:22:20.871Z,7.80
2022-12-18T18:24:54.553Z,7.81
2022-12-18T18:27:25.364Z,7.84
2022-12-18T18:29:54.460Z,7.87
2022-12-18T18:32:23.300Z,7.90
2022-12-18T18:34:56.120Z,7.94
2022-12-18T18:37:27.172Z,7.98
2022-12-18T18:39:56.425Z,7.97
2022-12-18T18:42:24.637Z,7.98
2022-12-18T18:44:54.729Z,7.99
2022-12-18T18:47:24.102Z,8.08
2022-12-18T18:49:52.338Z,8.31
2022-12-18T18:52:25.145Z,8.46
2022-12-18T18:55:12.052Z,8.50
2022-12-18T18:57:42.715Z,8.60
2022-12-18T19:00:14.507Z,8.58
2022-12-18T19:02:46.370Z,8.60
2022-12-18T19:05:15.460Z,8.63
2022-12-18T19:07:45.074Z,8.76
2022-12-18T19:10:12.322Z,8.76
2022-12-18T19:13:01.699Z,8.82
2022-12-18T19:15:31.678Z,8.94
2022-12-18T19:17:59.687Z,9.06
2022-12-18T19:20:31.496Z,9.10
2022-12-18T19:23:00.208Z,9.12
2022-12-18T19:25:38.511Z,9.17
2022-12-18T19:28:16.422Z,9.18
2022-12-18T19:30:50.346Z,9.20
2022-12-18T19:36:24.908Z,9.17
2022-12-18T19:38:55.167Z,9.31
2022-12-18T19:41:23.946Z,9.41
2022-12-18T19:43:55.670Z,9.39
2022-12-18T19:46:23.721Z,9.40
2022-12-18T19:48:51.304Z,9.45
2022-12-18T19:51:24.964Z,9.42
2022-12-18T19:54:01.241Z,9.44
2022-12-18T19:56:33.895Z,9.50
2022-12-18T19:59:04.170Z,9.49
2022-12-18T20:01:32.367Z,9.51
2022-12-18T20:04:03.918Z,9.61
2022-12-18T20:06:45.781Z,9.66
2022-12-18T20:09:15.173Z,9.74
2022-12-18T20:11:45.369Z,9.77
2022-12-18T20:14:14.235Z,9.74
2022-12-18T20:16:47.959Z,9.69
2022-12-18T20:19:16.151Z,9.64
2022-12-18T20:21:45.446Z,9.62
2022-12-18T20:24:14.649Z,9.57
2022-12-18T20:26:43.828Z,9.55
2022-12-18T20:29:11.085Z,9.52
2022-12-18T20:31:41.389Z,9.47
2022-12-18T20:34:09.537Z,9.41
2022-12-18T20:36:40.382Z,9.36
2022-12-18T20:39:14.425Z,9.30
2022-12-18T20:41:42.842Z,9.26
2022-12-18T20:44:21.991Z,9.21
2022-12-18T20:46:57.371Z,9.17
2022-12-18T20:49:32.203Z,9.14
2022-12-18T20:52:03.238Z,9.12
2022-12-18T20:54:34.512Z,9.11
2022-12-18T20:57:06.340Z,9.11
2022-12-18T20:59:35.199Z,9.12
2022-12-18T21:02:04.896Z,9.16
2022-12-18T21:04:35.343Z,9.17
2022-12-18T21:07:05.191Z,9.18
2022-12-18T21:09:38.420Z,9.20
2022-12-18T21:12:34.855Z,9.23
2022-12-18T21:15:11.040Z,9.32
2022-12-18T21:17:44.448Z,9.39
2022-12-18T21:20:17.370Z,9.43
2022-12-18T21:22:47.689Z,9.47
2022-12-18T21:25:20.031Z,9.55
2022-12-18T21:27:50.759Z,9.59
2022-12-18T21:30:21.827Z,9.59
2022-12-18T21:32:57.174Z,9.60
2022-12-18T21:35:26.845Z,9.61
2022-12-18T21:37:56.606Z,9.62
2022-12-18T21:40:27.808Z,9.62
2022-12-18T21:43:17.756Z,9.65
2022-12-18T21:45:48.383Z,9.63
2022-12-18T21:48:18.414Z,9.66
2022-12-18T21:50:48.345Z,9.68
2022-12-18T21:53:18.000Z,9.67
2022-12-18T21:55:47.842Z,9.72
2022-12-18T21:58:15.574Z,9.72
2022-12-18T22:00:48.884Z,9.73
2022-12-18T22:03:20.691Z,9.74
2022-12-18T22:05:53.328Z,9.78
2022-12-18T22:08:34.695Z,9.90
2022-12-18T22:11:03.709Z,9.95
2022-12-18T22:13:32.620Z,9.97
2022-12-18T22:16:01.889Z,9.97
2022-12-18T22:18:30.441Z,9.99
2022-12-18T22:21:07.017Z,10.02
2022-12-18T22:23:36.520Z,10.07
2022-12-18T22:26:04.832Z,10.15
2022-12-18T22:29:30.105Z,10.19
2022-12-18T22:32:17.087Z,10.24
2022-12-18T22:35:03.089Z,10.26
2022-12-18T22:37:32.970Z,10.27
2022-12-18T22:39:59.998Z,10.28
2022-12-18T22:42:30.384Z,10.29
2022-12-18T22:44:57.033Z,10.30
2022-12-18T22:47:27.997Z,10.32
2022-12-18T22:49:56.416Z,10.31
2022-12-18T22:52:23.442Z,10.29
2022-12-18T22:54:53.531Z,10.27
2022-12-18T22:57:21.834Z,10.23
2022-12-18T22:59:49.379Z,10.23
2022-12-18T23:02:18.125Z,10.24
2022-12-18T23:04:45.153Z,10.25
2022-12-18T23:07:12.031Z,10.29
2022-12-18T23:09:39.821Z,10.33
2022-12-18T23:12:07.338Z,10.39
2022-12-18T23:14:34.301Z,10.42
2022-12-18T23:17:01.054Z,10.43
2022-12-18T23:19:27.720Z,10.46
2022-12-18T23:21:57.716Z,10.47
2022-12-18T23:24:30.850Z,10.48
2022-12-18T23:26:59.287Z,10.47
2022-12-18T23:29:25.986Z,10.46
2022-12-18T23:31:52.997Z,10.46
2022-12-18T23:34:20.064Z,10.46
2022-12-18T23:36:49.158Z,10.42
2022-12-18T23:39:29.315Z,10.42
2022-12-18T23:41:59.261Z,10.43
2022-12-18T23:44:26.308Z,10.42
2022-12-18T23:46:53.191Z,10.40
2022-12-18T23:49:20.000Z,10.38
2022-12-18T23:51:47.161Z,10.39
2022-12-18T23:54:13.769Z,10.39
2022-12-18T23:56:40.409Z,10.38
2022-12-18T23:59:07.367Z,10.39
